Krupp, Washington
Current Conditions -  °F | °C
As of 4:52 PM on Wednesday 17 Dec 2014 (Local Time) from KMWH Reporting Station
Overcast Overcast  
Wind Chill: 33°   Ceiling: 1500
Heat Index: 38°   Visibility: 10mi
Dew Point: 36°   Wind: 6mph
Humidity: 93%   Direction: 330°NNW
Pressure: 29.93"   Gusts: NA
Location:  47.3463°N, 119.014°W
Report Text: KMWH 180052Z 33005KT 10SM OVC015 03/02 A2993 RMK AO2 SLP146 T00330022
Loading
Personal Weather Stations






























Interactive Weather Map New forecast layout! Learn more

10-Day Weather Forecast

Advertisements
Track Severe Weather on mobile